Time;durP1;ratioP1;P1;durP2;ratioP2;P2;SDS_P1;SDS_P2;PMS_P1;PMS_P2;Temp;Humidity;BMP_temperature;BMP_pressure;BME280_temperature;BME280_humidity;BME280_pressure;Samples;Min_cycle;Max_cycle;Signal;HPM_P1;HPM_P2
2022/10/11 07:36:38;;;;;;;9.00;2.20;;;;;;;0.00;0.00;0.00;100394;1345;544764;-86
2022/10/11 07:39:07;;;;;;;13.20;2.20;;;;;;;0.00;0.00;0.00;102315;1302;22474;-81
2022/10/11 07:41:33;;;;;;;7.50;2.00;;;;;;;0.00;0.00;0.00;102291;1320;22940;-83
2022/10/11 07:44:00;;;;;;;11.10;2.30;;;;;;;0.00;0.00;0.00;102667;1320;21705;-82
2022/10/11 07:46:27;;;;;;;8.40;1.80;;;;;;;0.00;0.00;0.00;102474;1311;25329;-82
2022/10/11 07:48:53;;;;;;;8.80;2.00;;;;;;;0.00;0.00;0.00;102395;1323;25265;-85
2022/10/11 07:51:22;;;;;;;10.50;2.20;;;;;;;0.00;0.00;0.00;102631;1317;101545;-81
2022/10/11 07:53:54;;;;;;;8.70;2.00;;;;;;;0.00;0.00;0.00;102667;1317;25393;-82
2022/10/11 07:56:25;;;;;;;9.90;1.90;;;;;;;0.00;0.00;0.00;103470;1300;22575;-82
2022/10/11 07:58:54;;;;;;;10.10;2.10;;;;;;;0.00;0.00;0.00;103072;1308;25215;-80
2022/10/11 08:01:21;;;;;;;8.30;1.80;;;;;;;0.00;0.00;0.00;103291;1303;22549;-84
2022/10/11 08:03:48;;;;;;;7.60;1.50;;;;;;;0.00;0.00;0.00;103006;1313;22472;-87
2022/10/11 08:06:18;;;;;;;8.50;1.60;;;;;;;0.00;0.00;0.00;103293;1310;25434;-85
2022/10/11 08:08:45;;;;;;;6.30;1.60;;;;;;;0.00;0.00;0.00;103081;1313;24238;-84
2022/10/11 08:11:26;;;;;;;8.50;1.40;;;;;;;0.00;0.00;0.00;103014;1313;22475;-84
2022/10/11 08:13:53;;;;;;;7.60;1.70;;;;;;;0.00;0.00;0.00;103032;1313;25361;-83
2022/10/11 08:16:20;;;;;;;10.20;1.80;;;;;;;0.00;0.00;0.00;103071;1310;22467;-80
2022/10/11 08:18:48;;;;;;;8.10;1.60;;;;;;;0.00;0.00;0.00;103333;1310;22468;-87
2022/10/11 08:21:16;;;;;;;8.50;1.50;;;;;;;0.00;0.00;0.00;103015;1305;22488;-81
2022/10/11 08:23:43;;;;;;;6.00;1.60;;;;;;;0.00;0.00;0.00;103013;1306;25267;-83
2022/10/11 08:26:11;;;;;;;9.80;1.70;;;;;;;0.00;0.00;0.00;103012;1309;24327;-81
2022/10/11 08:28:37;;;;;;;9.70;1.90;;;;;;;0.00;0.00;0.00;102935;1313;25241;-86
2022/10/11 08:31:04;;;;;;;9.30;2.00;;;;;;;0.00;0.00;0.00;103247;1310;22608;-82
2022/10/11 08:33:31;;;;;;;7.00;1.70;;;;;;;0.00;0.00;0.00;103280;1310;24698;-81
2022/10/11 08:36:03;;;;;;;7.40;1.40;;;;;;;0.00;0.00;0.00;103275;1310;24274;-84
2022/10/11 08:38:30;;;;;;;8.70;1.80;;;;;;;0.00;0.00;0.00;102996;1311;22470;-82
2022/10/11 08:40:58;;;;;;;6.80;1.60;;;;;;;0.00;0.00;0.00;103291;1301;23184;-85
2022/10/11 08:43:49;;;;;;;8.60;1.60;;;;;;;0.00;0.00;0.00;103294;1302;22480;-87
2022/10/11 08:46:24;;;;;;;8.80;1.30;;;;;;;0.00;0.00;0.00;103029;1303;22490;-82
2022/10/11 08:48:52;;;;;;;9.70;1.70;;;;;;;0.00;0.00;0.00;103280;1309;22471;-80
2022/10/11 08:51:37;;;;;;;9.60;1.80;;;;;;;0.00;0.00;0.00;103027;1310;23068;-86
2022/10/11 08:54:28;;;;;;;8.70;1.30;;;;;;;0.00;0.00;0.00;103039;1310;22481;-84
2022/10/11 08:56:55;;;;;;;8.70;1.30;;;;;;;0.00;0.00;0.00;103183;1310;25550;-82
2022/10/11 08:59:43;;;;;;;8.10;1.50;;;;;;;0.00;0.00;0.00;103337;1302;22439;-84
2022/10/11 09:02:28;;;;;;;9.60;1.20;;;;;;;0.00;0.00;0.00;103238;1310;25572;-83
2022/10/11 09:04:55;;;;;;;7.10;1.10;;;;;;;0.00;0.00;0.00;103296;1308;22558;-81
2022/10/11 09:07:50;;;;;;;11.50;1.70;;;;;;;0.00;0.00;0.00;103289;1302;22487;-82
2022/10/11 09:10:32;;;;;;;10.90;1.40;;;;;;;0.00;0.00;0.00;103050;1305;22472;-87
2022/10/11 09:13:30;;;;;;;9.60;1.10;;;;;;;0.00;0.00;0.00;103033;1311;22502;-86
2022/10/11 09:16:25;;;;;;;8.10;1.10;;;;;;;0.00;0.00;0.00;103313;1305;22835;-85
2022/10/11 09:19:29;;;;;;;5.70;0.80;;;;;;;0.00;0.00;0.00;103277;1310;22501;-83
2022/10/11 09:22:28;;;;;;;6.10;1.10;;;;;;;0.00;0.00;0.00;103503;1305;22471;-85
2022/10/11 09:24:58;;;;;;;11.40;1.80;;;;;;;0.00;0.00;0.00;102732;1316;25267;-80
2022/10/11 09:27:35;;;;;;;10.70;1.70;;;;;;;0.00;0.00;0.00;102548;1299;21883;-85
2022/10/11 09:30:15;;;;;;;9.20;1.50;;;;;;;0.00;0.00;0.00;102699;1316;25297;-81
2022/10/11 09:32:46;;;;;;;10.50;1.20;;;;;;;0.00;0.00;0.00;102451;1315;22494;-81
2022/10/11 09:35:17;;;;;;;10.20;1.20;;;;;;;0.00;0.00;0.00;102536;1319;22507;-94
2022/10/11 09:37:58;;;;;;;9.30;1.20;;;;;;;0.00;0.00;0.00;102529;1315;22869;-83
2022/10/11 09:40:46;;;;;;;9.20;1.30;;;;;;;0.00;0.00;0.00;102707;1313;22494;-85
2022/10/11 09:43:13;;;;;;;10.40;1.40;;;;;;;0.00;0.00;0.00;102714;1315;24286;-91
2022/10/11 09:45:45;;;;;;;9.60;1.00;;;;;;;0.00;0.00;0.00;102590;1316;22518;-81
2022/10/11 09:48:19;;;;;;;6.50;0.80;;;;;;;0.00;0.00;0.00;102722;1315;22496;-83
2022/10/11 09:50:46;;;;;;;9.50;1.40;;;;;;;0.00;0.00;0.00;102550;1316;22110;-85
2022/10/11 09:53:13;;;;;;;8.80;1.40;;;;;;;0.00;0.00;0.00;102447;1304;21872;-92
2022/10/11 09:55:53;;;;;;;7.50;1.20;;;;;;;0.00;0.00;0.00;102523;1312;22486;-80
2022/10/11 09:58:30;;;;;;;21.30;5.90;;;;;;;0.00;0.00;0.00;102513;1301;22620;-85
2022/10/11 10:01:01;;;;;;;12.80;2.00;;;;;;;0.00;0.00;0.00;103026;1310;24220;-85
2022/10/11 10:03:31;;;;;;;8.70;1.80;;;;;;;0.00;0.00;0.00;103229;1302;25263;-87
2022/10/11 10:06:07;;;;;;;36.30;12.80;;;;;;;0.00;0.00;0.00;103307;1310;22527;-81
2022/10/11 10:08:35;;;;;;;72.50;21.60;;;;;;;0.00;0.00;0.00;103340;1310;26583;-88
2022/10/11 10:11:06;;;;;;;18.50;6.60;;;;;;;0.00;0.00;0.00;103504;1310;26529;-82
2022/10/11 10:13:53;;;;;;;10.70;1.80;;;;;;;0.00;0.00;0.00;103127;1305;25289;-80
2022/10/11 10:16:26;;;;;;;9.70;1.30;;;;;;;0.00;0.00;0.00;103501;1309;22467;-82
2022/10/11 10:19:24;;;;;;;6.90;0.90;;;;;;;0.00;0.00;0.00;103477;1302;22446;-82
2022/10/11 10:21:54;;;;;;;8.80;1.10;;;;;;;0.00;0.00;0.00;103296;1309;24306;-85
2022/10/11 10:24:26;;;;;;;9.40;1.60;;;;;;;0.00;0.00;0.00;103459;1310;24251;-85
2022/10/11 10:27:12;;;;;;;6.80;1.10;;;;;;;0.00;0.00;0.00;103276;1310;22454;-80
2022/10/11 10:29:39;;;;;;;9.30;1.60;;;;;;;0.00;0.00;0.00;103258;1310;25636;-86
2022/10/11 10:32:15;;;;;;;11.50;1.20;;;;;;;0.00;0.00;0.00;103247;1310;25363;-85
2022/10/11 10:35:07;;;;;;;8.80;1.10;;;;;;;0.00;0.00;0.00;103096;1311;23620;-84
2022/10/11 10:37:56;;;;;;;11.70;1.30;;;;;;;0.00;0.00;0.00;103088;1310;22657;-81
2022/10/11 10:40:39;;;;;;;13.30;2.60;;;;;;;0.00;0.00;0.00;103339;1307;25254;-83
2022/10/11 10:43:14;;;;;;;13.20;3.20;;;;;;;0.00;0.00;0.00;103270;1310;25362;-81
2022/10/11 10:46:15;;;;;;;15.10;2.80;;;;;;;0.00;0.00;0.00;103367;1302;22510;-82
2022/10/11 10:48:42;;;;;;;10.80;1.30;;;;;;;0.00;0.00;0.00;103173;1309;22473;-85
2022/10/11 10:51:39;;;;;;;8.70;1.90;;;;;;;0.00;0.00;0.00;103284;1295;24314;-88
2022/10/11 10:54:15;;;;;;;9.80;1.80;;;;;;;0.00;0.00;0.00;103278;1308;24313;-84
2022/10/11 10:56:52;;;;;;;9.30;1.90;;;;;;;0.00;0.00;0.00;103314;1310;22493;-81
2022/10/11 10:59:57;;;;;;;9.20;1.50;;;;;;;0.00;0.00;0.00;103486;1310;24240;-87
2022/10/11 11:02:34;;;;;;;9.70;2.00;;;;;;;0.00;0.00;0.00;103383;1301;25322;-84
2022/10/11 11:05:24;;;;;;;10.10;1.40;;;;;;;0.00;0.00;0.00;103312;1310;22524;-83
2022/10/11 11:08:14;;;;;;;11.20;2.10;;;;;;;0.00;0.00;0.00;103359;1310;23889;-85
2022/10/11 11:10:52;;;;;;;9.30;1.80;;;;;;;0.00;0.00;0.00;103289;1310;26485;-83
2022/10/11 11:13:44;;;;;;;11.70;1.60;;;;;;;0.00;0.00;0.00;103272;1310;22590;-87
2022/10/11 11:16:23;;;;;;;9.00;1.70;;;;;;;0.00;0.00;0.00;103509;1307;26542;-83
2022/10/11 11:19:15;;;;;;;9.70;1.40;;;;;;;0.00;0.00;0.00;103371;1302;22473;-81
2022/10/11 11:22:00;;;;;;;7.30;1.50;;;;;;;0.00;0.00;0.00;103068;1309;22482;-84
2022/10/11 11:24:45;;;;;;;7.20;1.30;;;;;;;0.00;0.00;0.00;103449;1310;25240;-87
2022/10/11 11:27:37;;;;;;;9.30;1.30;;;;;;;0.00;0.00;0.00;103502;1299;25377;-83
2022/10/11 11:30:24;;;;;;;7.60;1.30;;;;;;;0.00;0.00;0.00;103424;1310;23477;-82
2022/10/11 11:33:29;;;;;;;7.90;1.20;;;;;;;0.00;0.00;0.00;103306;1307;22593;-84
2022/10/11 11:36:01;;;;;;;11.30;1.40;;;;;;;0.00;0.00;0.00;103501;1307;23156;-86
2022/10/11 11:38:33;;;;;;;8.90;1.70;;;;;;;0.00;0.00;0.00;103501;1307;22597;-87
2022/10/11 11:41:04;;;;;;;7.40;1.40;;;;;;;0.00;0.00;0.00;103471;1299;22839;-89
2022/10/11 11:43:41;;;;;;;7.90;0.90;;;;;;;0.00;0.00;0.00;103627;1307;25488;-83
2022/10/11 11:46:18;;;;;;;5.60;0.90;;;;;;;0.00;0.00;0.00;103551;1286;24240;-84
2022/10/11 11:48:47;;;;;;;13.00;1.50;;;;;;;0.00;0.00;0.00;103705;1282;22478;-84
2022/10/11 11:51:33;;;;;;;5.10;0.90;;;;;;;0.00;0.00;0.00;103789;1282;23222;-82
2022/10/11 11:54:17;;;;;;;10.00;1.50;;;;;;;0.00;0.00;0.00;103469;1292;22581;-82
2022/10/11 11:57:03;;;;;;;8.20;1.10;;;;;;;0.00;0.00;0.00;103588;1282;22523;-83
2022/10/11 11:59:43;;;;;;;7.00;1.00;;;;;;;0.00;0.00;0.00;103322;1291;22465;-87
2022/10/11 12:02:48;;;;;;;10.10;1.90;;;;;;;0.00;0.00;0.00;103553;1284;22468;-84
2022/10/11 12:05:20;;;;;;;7.70;1.20;;;;;;;0.00;0.00;0.00;103547;1283;22510;-82
2022/10/11 12:07:53;;;;;;;10.30;1.60;;;;;;;0.00;0.00;0.00;103288;1287;22443;-82
2022/10/11 12:10:49;;;;;;;8.10;1.00;;;;;;;0.00;0.00;0.00;103223;1282;24426;-83
2022/10/11 12:13:24;;;;;;;10.40;1.00;;;;;;;0.00;0.00;0.00;103466;1284;24222;-82
2022/10/11 12:16:10;;;;;;;7.90;0.90;;;;;;;0.00;0.00;0.00;103272;1282;22474;-83
2022/10/11 12:19:02;;;;;;;8.90;1.30;;;;;;;0.00;0.00;0.00;103635;1288;22621;-82
2022/10/11 12:21:32;;;;;;;4.90;0.90;;;;;;;0.00;0.00;0.00;103574;1289;24357;-82
2022/10/11 12:24:09;;;;;;;9.10;1.30;;;;;;;0.00;0.00;0.00;103610;1284;25425;-82
2022/10/11 12:26:42;;;;;;;11.00;1.40;;;;;;;0.00;0.00;0.00;103249;1307;22595;-85
2022/10/11 12:29:18;;;;;;;8.60;1.50;;;;;;;0.00;0.00;0.00;103708;1283;25260;-85
2022/10/11 12:31:47;;;;;;;6.90;1.10;;;;;;;0.00;0.00;0.00;103538;1290;22459;-82
2022/10/11 12:34:24;;;;;;;5.80;0.90;;;;;;;0.00;0.00;0.00;103428;1291;24250;-80
2022/10/11 12:36:51;;;;;;;6.00;0.80;;;;;;;0.00;0.00;0.00;103489;1282;24308;-88
2022/10/11 12:39:18;;;;;;;8.80;1.20;;;;;;;0.00;0.00;0.00;103468;1288;25210;-82
2022/10/11 12:41:46;;;;;;;6.90;1.10;;;;;;;0.00;0.00;0.00;103664;1275;22488;-83
2022/10/11 12:44:27;;;;;;;6.20;0.80;;;;;;;0.00;0.00;0.00;103676;1290;24362;-82
2022/10/11 12:46:54;;;;;;;7.40;0.90;;;;;;;0.00;0.00;0.00;103473;1307;22480;-81
2022/10/11 12:50:02;;;;;;;9.80;1.50;;;;;;;0.00;0.00;0.00;103618;1283;23057;-85
2022/10/11 12:53:12;;;;;;;7.90;1.00;;;;;;;0.00;0.00;0.00;103501;1275;22525;-81
2022/10/11 12:56:07;;;;;;;6.00;0.90;;;;;;;0.00;0.00;0.00;103034;1290;22502;-81
2022/10/11 12:58:40;;;;;;;8.10;1.20;;;;;;;0.00;0.00;0.00;102992;1290;22479;-81
2022/10/11 13:01:16;;;;;;;5.70;0.90;;;;;;;0.00;0.00;0.00;102781;1312;22440;-82
2022/10/11 13:03:49;;;;;;;10.90;1.30;;;;;;;0.00;0.00;0.00;103060;1287;22602;-82
2022/10/11 13:06:44;;;;;;;4.80;0.70;;;;;;;0.00;0.00;0.00;102922;1314;24408;-81
2022/10/11 13:09:24;;;;;;;6.40;0.80;;;;;;;0.00;0.00;0.00;102943;1291;23647;-82
2022/10/11 13:12:16;;;;;;;9.90;1.30;;;;;;;0.00;0.00;0.00;103076;1298;22518;-86
2022/10/11 13:14:47;;;;;;;4.90;0.80;;;;;;;0.00;0.00;0.00;102722;1292;23998;-82
2022/10/11 13:17:15;;;;;;;7.60;1.20;;;;;;;0.00;0.00;0.00;102944;1284;24432;-86
2022/10/11 13:19:42;;;;;;;8.00;1.00;;;;;;;0.00;0.00;0.00;103025;1291;25489;-81
2022/10/11 13:22:27;;;;;;;5.90;0.70;;;;;;;0.00;0.00;0.00;102843;1291;22503;-82
2022/10/11 13:24:56;;;;;;;8.10;1.30;;;;;;;0.00;0.00;0.00;102743;1293;22580;-80
2022/10/11 13:27:26;;;;;;;9.20;1.40;;;;;;;0.00;0.00;0.00;102849;1292;24619;-81
2022/10/11 13:29:58;;;;;;;7.00;1.00;;;;;;;0.00;0.00;0.00;102918;1291;25454;-81
2022/10/11 13:32:29;;;;;;;18.20;10.70;;;;;;;0.00;0.00;0.00;102874;1291;22471;-85
2022/10/11 13:35:05;;;;;;;12.60;3.20;;;;;;;0.00;0.00;0.00;103643;1302;22480;-84
2022/10/11 13:37:45;;;;;;;10.00;1.70;;;;;;;0.00;0.00;0.00;103627;1283;22490;-82
2022/10/11 13:40:15;;;;;;;7.60;0.80;;;;;;;0.00;0.00;0.00;103486;1307;22471;-83
2022/10/11 13:42:43;;;;;;;8.50;1.50;;;;;;;0.00;0.00;0.00;103385;1294;22585;-83
2022/10/11 13:45:16;;;;;;;9.20;1.50;;;;;;;0.00;0.00;0.00;103848;1307;24363;-83
2022/10/11 13:47:44;;;;;;;7.70;1.10;;;;;;;0.00;0.00;0.00;103520;1307;24175;-81
2022/10/11 13:50:14;;;;;;;8.90;1.10;;;;;;;0.00;0.00;0.00;103633;1302;23854;-80
2022/10/11 13:52:56;;;;;;;10.30;1.20;;;;;;;0.00;0.00;0.00;103530;1307;25493;-88
2022/10/11 13:55:29;;;;;;;6.90;0.90;;;;;;;0.00;0.00;0.00;103441;1307;24324;-81
2022/10/11 13:57:59;;;;;;;9.40;1.20;;;;;;;0.00;0.00;0.00;103452;1307;25306;-84
2022/10/11 14:00:38;;;;;;;9.00;1.10;;;;;;;0.00;0.00;0.00;103425;1301;22561;-82
2022/10/11 14:03:11;;;;;;;8.90;1.10;;;;;;;0.00;0.00;0.00;103522;1292;24276;-81
2022/10/11 14:05:41;;;;;;;9.30;1.30;;;;;;;0.00;0.00;0.00;103528;1306;22474;-86
2022/10/11 14:08:38;;;;;;;8.50;1.40;;;;;;;0.00;0.00;0.00;103231;1307;22471;-83
2022/10/11 14:11:06;;;;;;;8.80;1.30;;;;;;;0.00;0.00;0.00;103525;1291;22962;-86
2022/10/11 14:13:37;;;;;;;9.60;2.40;;;;;;;0.00;0.00;0.00;103331;1289;22477;-82
2022/10/11 14:16:24;;;;;;;6.80;1.10;;;;;;;0.00;0.00;0.00;103333;1302;22577;-82
2022/10/11 14:19:08;;;;;;;9.20;1.10;;;;;;;0.00;0.00;0.00;103535;1307;21876;-87
2022/10/11 14:21:44;;;;;;;7.60;1.60;;;;;;;0.00;0.00;0.00;103590;1302;22480;-82
2022/10/11 14:24:12;;;;;;;8.70;1.30;;;;;;;0.00;0.00;0.00;103571;1301;22465;-86
2022/10/11 14:26:43;;;;;;;7.20;1.30;;;;;;;0.00;0.00;0.00;103309;1303;23852;-87
2022/10/11 14:29:23;;;;;;;8.50;1.00;;;;;;;0.00;0.00;0.00;103521;1299;22462;-88
2022/10/11 14:31:50;;;;;;;7.00;1.20;;;;;;;0.00;0.00;0.00;103489;1307;22572;-88
2022/10/11 14:34:22;;;;;;;8.00;1.10;;;;;;;0.00;0.00;0.00;103513;1292;22528;-82
2022/10/11 14:36:50;;;;;;;9.20;1.20;;;;;;;0.00;0.00;0.00;103531;1307;25253;-83
2022/10/11 14:39:21;;;;;;;7.50;1.10;;;;;;;0.00;0.00;0.00;103355;1301;22850;-82
2022/10/11 14:41:50;;;;;;;8.60;1.10;;;;;;;0.00;0.00;0.00;103344;1307;25578;-85
2022/10/11 14:44:18;;;;;;;8.50;1.10;;;;;;;0.00;0.00;0.00;103489;1307;22054;-85
2022/10/11 14:46:47;;;;;;;11.70;3.80;;;;;;;0.00;0.00;0.00;103409;1304;24222;-85
2022/10/11 14:49:19;;;;;;;9.20;2.00;;;;;;;0.00;0.00;0.00;103622;1307;24265;-82
2022/10/11 14:51:48;;;;;;;10.70;1.60;;;;;;;0.00;0.00;0.00;103434;1301;25399;-84
2022/10/11 14:54:17;;;;;;;9.80;1.50;;;;;;;0.00;0.00;0.00;103519;1307;24291;-86
2022/10/11 14:56:45;;;;;;;13.60;2.50;;;;;;;0.00;0.00;0.00;103572;1307;22479;-81
2022/10/11 14:59:14;;;;;;;13.30;2.60;;;;;;;0.00;0.00;0.00;103461;1307;22481;-88
2022/10/11 15:01:42;;;;;;;9.90;1.70;;;;;;;0.00;0.00;0.00;103372;1302;22485;-88
2022/10/11 15:04:08;;;;;;;8.90;1.60;;;;;;;0.00;0.00;0.00;103494;1301;22463;-86
2022/10/11 15:06:38;;;;;;;10.60;3.00;;;;;;;0.00;0.00;0.00;103507;1300;22529;-83
2022/10/11 15:09:06;;;;;;;21.50;8.90;;;;;;;0.00;0.00;0.00;103530;1301;22434;-81
2022/10/11 15:11:37;;;;;;;22.50;7.50;;;;;;;0.00;0.00;0.00;103446;1307;22474;-81
2022/10/11 15:14:05;;;;;;;25.50;11.40;;;;;;;0.00;0.00;0.00;103505;1288;25340;-81
2022/10/11 15:16:33;;;;;;;24.30;10.90;;;;;;;0.00;0.00;0.00;103609;1292;22465;-85
2022/10/11 15:19:00;;;;;;;23.30;7.60;;;;;;;0.00;0.00;0.00;103619;1292;25505;-82
2022/10/11 15:21:28;;;;;;;19.20;6.40;;;;;;;0.00;0.00;0.00;103593;1290;22468;-82
2022/10/11 15:23:56;;;;;;;18.30;5.80;;;;;;;0.00;0.00;0.00;103632;1301;22494;-80
2022/10/11 15:26:27;;;;;;;13.50;3.60;;;;;;;0.00;0.00;0.00;103598;1292;22457;-82
2022/10/11 15:28:55;;;;;;;17.50;4.50;;;;;;;0.00;0.00;0.00;103709;1292;24215;-82
2022/10/11 15:31:23;;;;;;;16.30;4.30;;;;;;;0.00;0.00;0.00;103449;1291;23066;-81
2022/10/11 15:33:50;;;;;;;19.00;4.80;;;;;;;0.00;0.00;0.00;103413;1284;24255;-85
2022/10/11 15:36:21;;;;;;;14.50;3.10;;;;;;;0.00;0.00;0.00;103317;1289;22523;-84
2022/10/11 15:38:48;;;;;;;15.60;3.70;;;;;;;0.00;0.00;0.00;103320;1295;26710;-82
2022/10/11 15:41:17;;;;;;;15.00;3.70;;;;;;;0.00;0.00;0.00;103603;1284;25247;-82
2022/10/11 15:43:46;;;;;;;14.90;3.70;;;;;;;0.00;0.00;0.00;103593;1307;24523;-81
2022/10/11 15:46:19;;;;;;;15.10;3.10;;;;;;;0.00;0.00;0.00;103687;1290;25283;-81
2022/10/11 15:48:47;;;;;;;13.00;3.30;;;;;;;0.00;0.00;0.00;103673;1292;22539;-83
2022/10/11 15:51:14;;;;;;;13.70;2.60;;;;;;;0.00;0.00;0.00;103492;1294;24305;-82
2022/10/11 15:53:41;;;;;;;13.90;3.50;;;;;;;0.00;0.00;0.00;103595;1294;25297;-82
2022/10/11 15:56:14;;;;;;;12.70;3.50;;;;;;;0.00;0.00;0.00;103479;1307;22029;-83
2022/10/11 15:58:41;;;;;;;14.90;3.70;;;;;;;0.00;0.00;0.00;103481;1306;22848;-81
2022/10/11 16:01:13;;;;;;;12.50;3.30;;;;;;;0.00;0.00;0.00;103286;1307;22455;-81
2022/10/11 16:03:41;;;;;;;16.40;3.60;;;;;;;0.00;0.00;0.00;103563;1284;22603;-85
2022/10/11 16:06:08;;;;;;;14.40;3.70;;;;;;;0.00;0.00;0.00;103592;1285;22612;-82
2022/10/11 16:08:36;;;;;;;17.40;5.80;;;;;;;0.00;0.00;0.00;103671;1291;24541;-81
2022/10/11 16:11:05;;;;;;;21.60;6.80;;;;;;;0.00;0.00;0.00;103465;1307;22478;-84
2022/10/11 16:13:33;;;;;;;26.50;7.60;;;;;;;0.00;0.00;0.00;103353;1285;22465;-85
2022/10/11 16:16:01;;;;;;;24.00;8.00;;;;;;;0.00;0.00;0.00;103411;1285;22476;-85
2022/10/11 16:18:28;;;;;;;19.20;6.60;;;;;;;0.00;0.00;0.00;103368;1307;22468;-81
2022/10/11 16:20:55;;;;;;;25.20;7.40;;;;;;;0.00;0.00;0.00;103322;1293;24469;-82
2022/10/11 16:23:22;;;;;;;23.60;7.80;;;;;;;0.00;0.00;0.00;103492;1292;21767;-85
2022/10/11 16:26:00;;;;;;;24.70;8.40;;;;;;;0.00;0.00;0.00;103299;1294;22859;-86
2022/10/11 16:28:28;;;;;;;24.80;9.20;;;;;;;0.00;0.00;0.00;103496;1302;22478;-84
2022/10/11 16:30:55;;;;;;;29.90;8.50;;;;;;;0.00;0.00;0.00;103524;1307;22611;-82
2022/10/11 16:33:23;;;;;;;32.00;8.40;;;;;;;0.00;0.00;0.00;103298;1277;22526;-83
2022/10/11 16:35:50;;;;;;;24.20;8.50;;;;;;;0.00;0.00;0.00;103420;1307;22464;-85
2022/10/11 16:38:17;;;;;;;27.70;10.40;;;;;;;0.00;0.00;0.00;103477;1306;25457;-83
2022/10/11 16:40:44;;;;;;;34.40;12.20;;;;;;;0.00;0.00;0.00;103518;1301;22595;-81
2022/10/11 16:43:10;;;;;;;35.70;12.10;;;;;;;0.00;0.00;0.00;103425;1302;22461;-84
2022/10/11 16:45:37;;;;;;;35.20;11.80;;;;;;;0.00;0.00;0.00;103362;1301;22671;-79
2022/10/11 16:48:04;;;;;;;31.60;10.60;;;;;;;0.00;0.00;0.00;103237;1278;24778;-82
2022/10/11 16:50:32;;;;;;;31.80;10.90;;;;;;;0.00;0.00;0.00;103446;1284;22588;-80
2022/10/11 16:52:58;;;;;;;30.50;12.30;;;;;;;0.00;0.00;0.00;103401;1294;22606;-85
2022/10/11 16:55:25;;;;;;;40.50;19.60;;;;;;;0.00;0.00;0.00;106898;1285;22104;-82
2022/10/11 16:57:52;;;;;;;47.60;24.00;;;;;;;0.00;0.00;0.00;106810;1294;22075;-82
2022/10/11 17:00:20;;;;;;;76.00;38.50;;;;;;;0.00;0.00;0.00;106893;1306;22069;-79
2022/10/11 17:02:47;;;;;;;79.40;41.50;;;;;;;0.00;0.00;0.00;106700;1302;22194;-80
2022/10/11 17:05:13;;;;;;;76.70;39.10;;;;;;;0.00;0.00;0.00;106863;1307;21995;-80
2022/10/11 17:07:40;;;;;;;108.00;42.20;;;;;;;0.00;0.00;0.00;106655;1304;22149;-80
2022/10/11 17:10:07;;;;;;;91.90;37.80;;;;;;;0.00;0.00;0.00;106676;1295;22748;-82
2022/10/11 17:12:36;;;;;;;71.20;32.40;;;;;;;0.00;0.00;0.00;106840;1307;22085;-81
2022/10/11 17:15:03;;;;;;;77.50;35.10;;;;;;;0.00;0.00;0.00;106711;1301;22571;-80
2022/10/11 17:17:30;;;;;;;74.20;34.50;;;;;;;0.00;0.00;0.00;106718;1307;22763;-80
2022/10/11 17:19:57;;;;;;;71.10;33.40;;;;;;;0.00;0.00;0.00;106707;1303;22081;-80
2022/10/11 17:22:24;;;;;;;60.40;27.20;;;;;;;0.00;0.00;0.00;106829;1298;22125;-82
2022/10/11 17:24:51;;;;;;;61.60;26.30;;;;;;;0.00;0.00;0.00;107080;1300;22020;-82
2022/10/11 17:27:18;;;;;;;113.40;38.40;;;;;;;0.00;0.00;0.00;106846;1307;22143;-83
2022/10/11 17:29:44;;;;;;;216.10;62.80;;;;;;;0.00;0.00;0.00;106713;1307;22161;-82
2022/10/11 17:32:11;;;;;;;219.00;63.20;;;;;;;0.00;0.00;0.00;106741;1295;21980;-82
2022/10/11 17:34:38;;;;;;;183.60;55.00;;;;;;;0.00;0.00;0.00;106702;1307;22146;-81
2022/10/11 17:37:07;;;;;;;135.30;49.10;;;;;;;0.00;0.00;0.00;106815;1298;22507;-83
2022/10/11 17:39:34;;;;;;;106.40;43.20;;;;;;;0.00;0.00;0.00;106848;1300;22095;-82
2022/10/11 17:42:06;;;;;;;77.40;36.90;;;;;;;0.00;0.00;0.00;106834;1307;22097;-83
2022/10/11 17:44:34;;;;;;;92.00;37.80;;;;;;;0.00;0.00;0.00;106728;1307;22159;-81
2022/10/11 17:47:01;;;;;;;90.30;37.30;;;;;;;0.00;0.00;0.00;106728;1307;22145;-82
2022/10/11 17:49:29;;;;;;;73.90;33.10;;;;;;;0.00;0.00;0.00;106823;1302;22054;-81
2022/10/11 17:51:55;;;;;;;64.30;27.80;;;;;;;0.00;0.00;0.00;106739;1300;22099;-81
2022/10/11 17:54:23;;;;;;;44.10;22.50;;;;;;;0.00;0.00;0.00;106685;1304;22089;-82
2022/10/11 17:56:50;;;;;;;40.10;19.90;;;;;;;0.00;0.00;0.00;106816;1302;22059;-82
2022/10/11 17:59:20;;;;;;;42.20;17.90;;;;;;;0.00;0.00;0.00;106830;1302;22738;-81
2022/10/11 18:01:49;;;;;;;42.40;18.90;;;;;;;0.00;0.00;0.00;106677;1307;22082;-81
2022/10/11 18:04:18;;;;;;;52.10;22.20;;;;;;;0.00;0.00;0.00;106817;1307;22067;-83
2022/10/11 18:06:47;;;;;;;60.00;26.10;;;;;;;0.00;0.00;0.00;106875;1299;22137;-81
2022/10/11 18:09:16;;;;;;;54.30;23.50;;;;;;;0.00;0.00;0.00;106749;1300;22065;-82
2022/10/11 18:11:44;;;;;;;51.60;23.40;;;;;;;0.00;0.00;0.00;106671;1294;22064;-81
2022/10/11 18:14:11;;;;;;;50.40;22.60;;;;;;;0.00;0.00;0.00;106671;1301;22081;-83
2022/10/11 18:16:38;;;;;;;49.10;20.60;;;;;;;0.00;0.00;0.00;106629;1310;21958;-82
2022/10/11 18:19:09;;;;;;;58.30;22.30;;;;;;;0.00;0.00;0.00;106580;1310;22096;-81
2022/10/11 18:21:36;;;;;;;46.90;20.20;;;;;;;0.00;0.00;0.00;106714;1310;22112;-81
2022/10/11 18:24:09;;;;;;;59.20;22.50;;;;;;;0.00;0.00;0.00;106650;1304;22099;-81
2022/10/11 18:26:37;;;;;;;74.20;30.90;;;;;;;0.00;0.00;0.00;106659;1297;22073;-81
2022/10/11 18:29:07;;;;;;;77.00;29.80;;;;;;;0.00;0.00;0.00;106687;1300;22056;-81
2022/10/11 18:31:34;;;;;;;70.50;29.40;;;;;;;0.00;0.00;0.00;106649;1303;22063;-81
2022/10/11 18:34:04;;;;;;;71.00;29.70;;;;;;;0.00;0.00;0.00;106845;1309;22032;-82
2022/10/11 18:36:31;;;;;;;75.40;32.50;;;;;;;0.00;0.00;0.00;106696;1302;22099;-83
2022/10/11 18:39:01;;;;;;;90.00;36.90;;;;;;;0.00;0.00;0.00;106678;1300;22071;-81
2022/10/11 18:41:30;;;;;;;81.30;35.10;;;;;;;0.00;0.00;0.00;106650;1310;22220;-81
2022/10/11 18:43:59;;;;;;;85.00;34.90;;;;;;;0.00;0.00;0.00;106605;1304;21981;-81
2022/10/11 18:46:28;;;;;;;77.50;33.30;;;;;;;0.00;0.00;0.00;106619;1310;22099;-81
2022/10/11 18:48:57;;;;;;;72.20;29.90;;;;;;;0.00;0.00;0.00;106652;1310;22128;-81
2022/10/11 18:51:28;;;;;;;71.60;30.10;;;;;;;0.00;0.00;0.00;106631;1309;22054;-80
2022/10/11 18:53:57;;;;;;;63.50;27.20;;;;;;;0.00;0.00;0.00;106697;1308;22129;-80
2022/10/11 18:56:26;;;;;;;58.30;25.30;;;;;;;0.00;0.00;0.00;106646;1308;22109;-80
2022/10/11 18:58:55;;;;;;;63.70;26.00;;;;;;;0.00;0.00;0.00;106634;1305;22243;-81
2022/10/11 19:01:24;;;;;;;53.60;23.10;;;;;;;0.00;0.00;0.00;106696;1309;22155;-81
2022/10/11 19:03:55;;;;;;;48.30;20.90;;;;;;;0.00;0.00;0.00;106637;1309;22098;-80
2022/10/11 19:06:37;;;;;;;46.80;20.80;;;;;;;0.00;0.00;0.00;106827;1302;22018;-80
2022/10/11 19:09:10;;;;;;;49.60;19.30;;;;;;;0.00;0.00;0.00;106711;1309;22099;-80
2022/10/11 19:11:37;;;;;;;44.70;18.90;;;;;;;0.00;0.00;0.00;106626;1309;22027;-80
2022/10/11 19:14:10;;;;;;;46.00;18.50;;;;;;;0.00;0.00;0.00;106622;1304;21937;-81
2022/10/11 19:16:41;;;;;;;42.20;18.90;;;;;;;0.00;0.00;0.00;106699;1298;21681;-81
2022/10/11 19:19:11;;;;;;;38.90;15.90;;;;;;;0.00;0.00;0.00;106551;1304;22082;-81
2022/10/11 19:21:38;;;;;;;40.60;15.60;;;;;;;0.00;0.00;0.00;106635;1308;22082;-80
2022/10/11 19:24:05;;;;;;;35.20;15.00;;;;;;;0.00;0.00;0.00;106692;1310;22733;-81
2022/10/11 19:26:37;;;;;;;33.30;13.60;;;;;;;0.00;0.00;0.00;106702;1309;22137;-81
2022/10/11 19:29:09;;;;;;;33.00;13.40;;;;;;;0.00;0.00;0.00;106568;1308;22097;-81
2022/10/11 19:31:40;;;;;;;38.80;14.10;;;;;;;0.00;0.00;0.00;106697;1309;22122;-81
2022/10/11 19:34:09;;;;;;;36.20;13.40;;;;;;;0.00;0.00;0.00;106640;1309;21955;-81
2022/10/11 19:36:37;;;;;;;35.10;12.90;;;;;;;0.00;0.00;0.00;106889;1300;22262;-81
2022/10/11 19:39:05;;;;;;;29.60;12.80;;;;;;;0.00;0.00;0.00;106639;1304;22138;-81
2022/10/11 19:41:32;;;;;;;25.00;9.90;;;;;;;0.00;0.00;0.00;106566;1310;21955;-81
2022/10/11 19:43:59;;;;;;;35.40;12.20;;;;;;;0.00;0.00;0.00;106673;1301;22096;-81
2022/10/11 19:46:27;;;;;;;32.30;14.20;;;;;;;0.00;0.00;0.00;106725;1309;22129;-81
2022/10/11 19:48:54;;;;;;;27.10;12.10;;;;;;;0.00;0.00;0.00;106798;1303;22029;-81
2022/10/11 19:51:24;;;;;;;30.30;12.80;;;;;;;0.00;0.00;0.00;106608;1297;224091;-86
2022/10/11 19:53:59;;;;;;;30.20;13.00;;;;;;;0.00;0.00;0.00;106573;1308;22102;-87
2022/10/11 19:56:29;;;;;;;28.70;12.90;;;;;;;0.00;0.00;0.00;106555;1310;22129;-83
2022/10/11 19:58:59;;;;;;;33.30;14.60;;;;;;;0.00;0.00;0.00;106661;1310;23138;-86
2022/10/11 20:01:30;;;;;;;25.80;12.80;;;;;;;0.00;0.00;0.00;106622;1309;22148;-85
2022/10/11 20:04:02;;;;;;;29.00;13.50;;;;;;;0.00;0.00;0.00;106682;1302;22496;-86
2022/10/11 20:06:31;;;;;;;29.90;13.20;;;;;;;0.00;0.00;0.00;106609;1304;22064;-79
2022/10/11 20:08:58;;;;;;;34.30;14.40;;;;;;;0.00;0.00;0.00;106760;1308;22119;-86
2022/10/11 20:11:25;;;;;;;32.80;14.40;;;;;;;0.00;0.00;0.00;106659;1310;22088;-85
2022/10/11 20:13:53;;;;;;;36.70;15.40;;;;;;;0.00;0.00;0.00;106610;1298;22131;-86